Terminal Aerodrome Forecast
Issued by NWS

Home | Current Version | Previous Version | Text Only | Print | Product List | Glossary On
Versions: 1 2 3 4 5 6 7 8 9 10 11 12 13 14 15 16 17 18 19 20 21
595
FTUS43 KJKL 081725
TAFSME
TAF
KSME 081725Z 0818/0918 29010G16KT P6SM FEW250
     FM090000 29006KT P6SM FEW250
     FM090700 29005KT P6SM -SHSN BKN025
     FM091600 29006KT P6SM SCT030=

USA.gov is the U.S. government's official web portal to all federal, state and local government web resources and services.